UAL2649 KPHL-KIAH
Flight info
| Callsign | UAL2649 |
|---|---|
| Flight time | 3h 12m |
| Altitude | 38000 |
| Route | STOEN REEFI EMI J48 CSN FANPO Q40 AEX DOOBI3 |
| Aircraft | B38M/M-SDE1FGHILORVWXY/HB1 |
Departure
| Time | 2026-05-05 00:28 |
|---|---|
| Airport | Philadelphia International Airport (KPHL) |
Arrival
| Time | 2026-05-05 03:40 |
|---|---|
| Airport | George Bush Intercontinental Airport (KIAH) |
| Time | Latitude | Longitude | Altitude | Speed | Heading |
|---|---|---|---|---|---|
| 2026-05-05 00:09 | 39.87527 | -75.23722 | 24 ft | 0 kts | 315° |
| 2026-05-05 00:20 | 39.87512 | -75.23703 | 29 ft | 4 kts | 310° |
| 2026-05-05 00:20 | 39.87498 | -75.23674 | 25 ft | 4 kts | 281° |
| 2026-05-05 00:21 | 39.87500 | -75.23643 | 26 ft | 4 kts | 236° |
| 2026-05-05 00:21 | 39.87507 | -75.23631 | 30 ft | 1 kts | 225° |
| 2026-05-05 00:21 | 39.87508 | -75.23631 | 30 ft | 0 kts | 225° |
| 2026-05-05 00:24 | 39.87507 | -75.23631 | 24 ft | 1 kts | 225° |
| 2026-05-05 00:24 | 39.87498 | -75.23643 | 26 ft | 3 kts | 225° |
| 2026-05-05 00:25 | 39.87473 | -75.23675 | 24 ft | 7 kts | 224° |
| 2026-05-05 00:25 | 39.87430 | -75.23719 | 26 ft | 9 kts | 197° |
| 2026-05-05 00:25 | 39.87362 | -75.23720 | 26 ft | 11 kts | 193° |
| 2026-05-05 00:25 | 39.87281 | -75.23717 | 26 ft | 13 kts | 166° |
| 2026-05-05 00:26 | 39.87189 | -75.23685 | 26 ft | 15 kts | 164° |
| 2026-05-05 00:26 | 39.87118 | -75.23616 | 28 ft | 14 kts | 84° |
| 2026-05-05 00:26 | 39.87133 | -75.23493 | 24 ft | 14 kts | 106° |
| 2026-05-05 00:26 | 39.87052 | -75.23444 | 27 ft | 13 kts | 166° |
| 2026-05-05 00:27 | 39.86966 | -75.23414 | 26 ft | 13 kts | 165° |
| 2026-05-05 00:27 | 39.86897 | -75.23446 | 28 ft | 12 kts | 257° |
| 2026-05-05 00:27 | 39.86852 | -75.23661 | 27 ft | 54 kts | 255° |
| 2026-05-05 00:27 | 39.86696 | -75.24440 | 26 ft | 122 kts | 255° |
| 2026-05-05 00:28 | 39.86438 | -75.25738 | 170 ft | 164 kts | 254° |
| 2026-05-05 00:28 | 39.86171 | -75.27170 | 905 ft | 162 kts | 250° |
| 2026-05-05 00:28 | 39.85830 | -75.28531 | 1810 ft | 157 kts | 244° |
| 2026-05-05 00:28 | 39.85451 | -75.29953 | 2311 ft | 183 kts | 254° |
| 2026-05-05 00:29 | 39.85363 | -75.31739 | 2562 ft | 211 kts | 263° |
| 2026-05-05 00:29 | 39.85315 | -75.33764 | 2776 ft | 237 kts | 264° |
| 2026-05-05 00:29 | 39.85261 | -75.35967 | 3343 ft | 248 kts | 264° |
| 2026-05-05 00:29 | 39.85205 | -75.38198 | 4322 ft | 246 kts | 265° |
| 2026-05-05 00:30 | 39.85146 | -75.40378 | 5258 ft | 246 kts | 265° |
| 2026-05-05 00:30 | 39.85079 | -75.42654 | 6157 ft | 248 kts | 265° |
| 2026-05-05 00:30 | 39.85011 | -75.44897 | 7015 ft | 249 kts | 266° |
| 2026-05-05 00:30 | 39.84938 | -75.47166 | 7834 ft | 252 kts | 266° |
| 2026-05-05 00:31 | 39.84864 | -75.49465 | 8624 ft | 256 kts | 267° |
| 2026-05-05 00:31 | 39.84787 | -75.51789 | 9476 ft | 257 kts | 268° |
| 2026-05-05 00:31 | 39.84708 | -75.54123 | 10248 ft | 261 kts | 268° |
| 2026-05-05 00:31 | 39.84626 | -75.56580 | 10515 ft | 284 kts | 268° |
| 2026-05-05 00:32 | 39.84535 | -75.59246 | 10717 ft | 306 kts | 268° |
| 2026-05-05 00:32 | 39.84438 | -75.62077 | 11172 ft | 318 kts | 268° |
| 2026-05-05 00:32 | 39.84336 | -75.64977 | 11854 ft | 322 kts | 268° |
| 2026-05-05 00:32 | 39.84232 | -75.67899 | 12619 ft | 325 kts | 268° |
| 2026-05-05 00:33 | 39.84127 | -75.70859 | 13322 ft | 330 kts | 268° |
| 2026-05-05 00:33 | 39.84020 | -75.73857 | 13955 ft | 334 kts | 268° |
| 2026-05-05 00:33 | 39.83910 | -75.76894 | 14591 ft | 338 kts | 268° |
| 2026-05-05 00:33 | 39.83788 | -75.79963 | 15246 ft | 341 kts | 266° |
| 2026-05-05 00:34 | 39.83626 | -75.82001 | 15663 ft | 343 kts | 263° |
| 2026-05-05 00:34 | 39.83288 | -75.85094 | 16280 ft | 347 kts | 262° |
| 2026-05-05 00:34 | 39.82783 | -75.89237 | 17107 ft | 352 kts | 261° |
| 2026-05-05 00:34 | 39.82399 | -75.92395 | 17722 ft | 356 kts | 261° |
| 2026-05-05 00:35 | 39.82017 | -75.95595 | 18294 ft | 360 kts | 261° |
| 2026-05-05 00:35 | 39.81638 | -75.98827 | 18824 ft | 363 kts | 262° |
| 2026-05-05 00:35 | 39.81258 | -76.02092 | 19370 ft | 366 kts | 262° |
| 2026-05-05 00:35 | 39.80878 | -76.05377 | 19885 ft | 370 kts | 262° |
| 2026-05-05 00:36 | 39.80619 | -76.07621 | 20232 ft | 372 kts | 262° |
| 2026-05-05 00:36 | 39.80495 | -76.08693 | 20400 ft | 373 kts | 262° |
| 2026-05-05 00:36 | 39.80255 | -76.10761 | 20712 ft | 375 kts | 262° |
| 2026-05-05 00:36 | 39.79863 | -76.14134 | 21205 ft | 379 kts | 262° |
| 2026-05-05 00:37 | 39.79372 | -76.17513 | 21693 ft | 383 kts | 256° |
| 2026-05-05 00:37 | 39.78486 | -76.20792 | 22179 ft | 387 kts | 247° |
| 2026-05-05 00:37 | 39.77327 | -76.23956 | 22672 ft | 391 kts | 246° |
| 2026-05-05 00:37 | 39.76138 | -76.27102 | 23111 ft | 395 kts | 245° |
| 2026-05-05 00:38 | 39.74915 | -76.30323 | 23528 ft | 399 kts | 245° |
| 2026-05-05 00:38 | 39.73688 | -76.33567 | 23920 ft | 401 kts | 245° |
| 2026-05-05 00:38 | 39.72459 | -76.36832 | 24323 ft | 403 kts | 246° |
| 2026-05-05 00:38 | 39.71228 | -76.40118 | 24731 ft | 405 kts | 246° |
| 2026-05-05 00:39 | 39.69995 | -76.43417 | 25118 ft | 408 kts | 246° |
| 2026-05-05 00:39 | 39.68754 | -76.46743 | 25474 ft | 411 kts | 246° |
| 2026-05-05 00:39 | 39.67506 | -76.50085 | 25839 ft | 414 kts | 246° |
| 2026-05-05 00:39 | 39.66245 | -76.53459 | 26163 ft | 417 kts | 245° |
| 2026-05-05 00:40 | 39.64973 | -76.56857 | 26509 ft | 420 kts | 245° |
| 2026-05-05 00:40 | 39.63694 | -76.60272 | 26865 ft | 422 kts | 245° |
| 2026-05-05 00:40 | 39.62407 | -76.63702 | 27223 ft | 424 kts | 245° |
| 2026-05-05 00:40 | 39.61112 | -76.67152 | 27534 ft | 427 kts | 245° |
| 2026-05-05 00:41 | 39.59806 | -76.70624 | 27855 ft | 429 kts | 245° |
| 2026-05-05 00:41 | 39.58494 | -76.74111 | 28178 ft | 432 kts | 245° |
| 2026-05-05 00:41 | 39.57175 | -76.77612 | 28500 ft | 434 kts | 245° |
| 2026-05-05 00:41 | 39.55846 | -76.81134 | 28815 ft | 436 kts | 245° |
| 2026-05-05 00:42 | 39.54510 | -76.84670 | 29122 ft | 438 kts | 245° |
| 2026-05-05 00:42 | 39.53166 | -76.88228 | 29420 ft | 440 kts | 245° |
| 2026-05-05 00:42 | 39.51818 | -76.91787 | 29713 ft | 442 kts | 245° |
| 2026-05-05 00:42 | 39.50378 | -76.95313 | 29977 ft | 445 kts | 239° |
| 2026-05-05 00:43 | 39.48542 | -76.98551 | 30243 ft | 447 kts | 231° |
| 2026-05-05 00:43 | 39.46349 | -77.01406 | 30593 ft | 448 kts | 222° |
| 2026-05-05 00:43 | 39.43940 | -77.03954 | 30977 ft | 446 kts | 221° |
| 2026-05-05 00:43 | 39.41513 | -77.06456 | 31294 ft | 446 kts | 220° |
| 2026-05-05 00:44 | 39.39113 | -77.08921 | 31574 ft | 446 kts | 220° |
| 2026-05-05 00:44 | 39.36660 | -77.11450 | 31899 ft | 446 kts | 221° |
| 2026-05-05 00:44 | 39.34273 | -77.13926 | 32226 ft | 444 kts | 221° |
| 2026-05-05 00:44 | 39.31842 | -77.16460 | 32563 ft | 443 kts | 221° |
| 2026-05-05 00:45 | 39.29444 | -77.18967 | 32852 ft | 443 kts | 221° |
| 2026-05-05 00:45 | 39.27082 | -77.21439 | 33121 ft | 443 kts | 221° |
| 2026-05-05 00:45 | 39.24688 | -77.23945 | 33427 ft | 442 kts | 221° |
| 2026-05-05 00:45 | 39.22271 | -77.26473 | 33738 ft | 441 kts | 222° |
| 2026-05-05 00:46 | 39.19889 | -77.28961 | 33999 ft | 441 kts | 222° |
| 2026-05-05 00:46 | 39.17622 | -77.31327 | 34222 ft | 441 kts | 222° |
| 2026-05-05 00:46 | 39.15243 | -77.33808 | 34487 ft | 439 kts | 222° |
| 2026-05-05 00:47 | 39.12875 | -77.36274 | 34757 ft | 437 kts | 222° |
| 2026-05-05 00:47 | 39.10512 | -77.38732 | 35007 ft | 436 kts | 222° |
| 2026-05-05 00:47 | 39.08152 | -77.41186 | 35235 ft | 436 kts | 222° |
| 2026-05-05 00:47 | 39.05796 | -77.43634 | 35472 ft | 435 kts | 222° |
| 2026-05-05 00:48 | 39.03451 | -77.46068 | 35709 ft | 434 kts | 222° |
| 2026-05-05 00:48 | 39.01098 | -77.48508 | 35920 ft | 433 kts | 222° |
| 2026-05-05 00:48 | 38.98761 | -77.50929 | 36136 ft | 432 kts | 222° |
| 2026-05-05 00:48 | 38.96422 | -77.53350 | 36359 ft | 431 kts | 222° |
| 2026-05-05 00:49 | 38.94086 | -77.55766 | 36579 ft | 430 kts | 222° |
| 2026-05-05 00:49 | 38.91760 | -77.58170 | 36785 ft | 429 kts | 222° |
| 2026-05-05 00:49 | 38.89432 | -77.60573 | 36993 ft | 429 kts | 222° |
| 2026-05-05 00:49 | 38.87109 | -77.62969 | 37189 ft | 428 kts | 222° |
| 2026-05-05 00:50 | 38.84789 | -77.65360 | 37389 ft | 427 kts | 222° |
| 2026-05-05 00:50 | 38.82474 | -77.67745 | 37593 ft | 426 kts | 222° |
| 2026-05-05 00:50 | 38.80165 | -77.70121 | 37773 ft | 426 kts | 222° |
| 2026-05-05 00:50 | 38.77855 | -77.72496 | 37898 ft | 426 kts | 222° |
| 2026-05-05 00:51 | 38.75539 | -77.74876 | 37921 ft | 428 kts | 222° |
| 2026-05-05 00:51 | 38.70893 | -77.79644 | 37926 ft | 427 kts | 222° |
| 2026-05-05 00:52 | 38.66272 | -77.84375 | 37926 ft | 424 kts | 222° |
| 2026-05-05 00:52 | 38.62163 | -77.89673 | 37957 ft | 416 kts | 235° |
| 2026-05-05 00:53 | 38.58710 | -77.95598 | 37945 ft | 415 kts | 236° |
| 2026-05-05 00:53 | 38.55254 | -78.01504 | 37939 ft | 415 kts | 236° |
| 2026-05-05 00:54 | 38.51788 | -78.07353 | 37937 ft | 416 kts | 235° |
| 2026-05-05 00:54 | 38.48282 | -78.13241 | 37935 ft | 417 kts | 235° |
| 2026-05-05 00:55 | 38.44766 | -78.19137 | 37930 ft | 418 kts | 235° |
| 2026-05-05 00:55 | 38.41331 | -78.25129 | 37924 ft | 418 kts | 239° |
| 2026-05-05 00:56 | 38.38248 | -78.31425 | 37935 ft | 419 kts | 240° |
| 2026-05-05 00:56 | 38.36834 | -78.34377 | 37928 ft | 419 kts | 240° |
| 2026-05-05 00:57 | 38.33778 | -78.40718 | 37936 ft | 421 kts | 240° |
| 2026-05-05 00:57 | 38.30690 | -78.47057 | 37938 ft | 422 kts | 240° |
| 2026-05-05 00:58 | 38.27583 | -78.53392 | 37944 ft | 422 kts | 240° |
| 2026-05-05 00:58 | 38.24467 | -78.59727 | 37939 ft | 422 kts | 240° |
| 2026-05-05 00:59 | 38.21348 | -78.66057 | 37936 ft | 422 kts | 240° |
| 2026-05-05 00:59 | 38.18229 | -78.72374 | 37966 ft | 422 kts | 240° |
| 2026-05-05 01:00 | 38.16934 | -78.74993 | 37974 ft | 421 kts | 240° |
| 2026-05-05 01:00 | 38.13814 | -78.81296 | 37992 ft | 421 kts | 240° |
| 2026-05-05 01:01 | 38.10720 | -78.87537 | 37974 ft | 420 kts | 240° |
| 2026-05-05 01:01 | 38.07603 | -78.93809 | 37973 ft | 419 kts | 240° |
| 2026-05-05 01:02 | 38.04494 | -79.00055 | 37966 ft | 418 kts | 240° |
| 2026-05-05 01:02 | 38.01392 | -79.06275 | 37963 ft | 417 kts | 240° |
| 2026-05-05 01:03 | 37.98295 | -79.12472 | 37945 ft | 415 kts | 240° |
| 2026-05-05 01:03 | 37.95204 | -79.18648 | 37931 ft | 415 kts | 240° |
| 2026-05-05 01:04 | 37.92117 | -79.24804 | 37926 ft | 413 kts | 240° |
| 2026-05-05 01:04 | 37.87493 | -79.34001 | 37916 ft | 412 kts | 240° |
| 2026-05-05 01:05 | 37.84409 | -79.40109 | 37914 ft | 412 kts | 240° |
| 2026-05-05 01:05 | 37.81317 | -79.46218 | 37912 ft | 412 kts | 240° |
| 2026-05-05 01:06 | 37.79770 | -79.49273 | 37916 ft | 412 kts | 239° |
| 2026-05-05 01:06 | 37.76822 | -79.55088 | 37927 ft | 413 kts | 239° |
| 2026-05-05 01:07 | 37.73714 | -79.61207 | 37926 ft | 414 kts | 239° |
| 2026-05-05 01:07 | 37.70594 | -79.67339 | 37938 ft | 415 kts | 239° |
| 2026-05-05 01:08 | 37.67465 | -79.73477 | 37951 ft | 416 kts | 239° |
| 2026-05-05 01:08 | 37.64322 | -79.79630 | 37976 ft | 417 kts | 239° |
| 2026-05-05 01:09 | 37.61173 | -79.85786 | 37968 ft | 418 kts | 239° |
| 2026-05-05 01:09 | 37.58014 | -79.91946 | 37971 ft | 419 kts | 239° |
| 2026-05-05 01:10 | 37.54849 | -79.98109 | 37977 ft | 418 kts | 239° |
| 2026-05-05 01:10 | 37.51683 | -80.04262 | 37975 ft | 418 kts | 239° |
| 2026-05-05 01:11 | 37.48542 | -80.10355 | 37976 ft | 417 kts | 239° |
| 2026-05-05 01:11 | 37.45387 | -80.16464 | 37983 ft | 416 kts | 239° |
| 2026-05-05 01:12 | 37.42233 | -80.22560 | 37974 ft | 415 kts | 239° |
| 2026-05-05 01:12 | 37.39090 | -80.28623 | 38002 ft | 413 kts | 239° |
| 2026-05-05 01:13 | 37.35956 | -80.34660 | 38024 ft | 412 kts | 239° |
| 2026-05-05 01:13 | 37.32820 | -80.40691 | 38031 ft | 412 kts | 239° |
| 2026-05-05 01:14 | 37.29681 | -80.46717 | 38034 ft | 412 kts | 239° |
| 2026-05-05 01:14 | 37.26557 | -80.52747 | 38029 ft | 412 kts | 240° |
| 2026-05-05 01:15 | 37.23591 | -80.58902 | 38014 ft | 412 kts | 242° |
| 2026-05-05 01:15 | 37.20661 | -80.65085 | 38015 ft | 413 kts | 242° |
| 2026-05-05 01:16 | 37.19185 | -80.68177 | 38013 ft | 413 kts | 242° |
| 2026-05-05 01:16 | 37.16292 | -80.74205 | 38016 ft | 413 kts | 242° |
| 2026-05-05 01:17 | 37.13318 | -80.80369 | 38018 ft | 413 kts | 242° |
| 2026-05-05 01:17 | 37.10337 | -80.86532 | 38005 ft | 414 kts | 242° |
| 2026-05-05 01:18 | 37.07368 | -80.92660 | 38005 ft | 415 kts | 242° |
| 2026-05-05 01:18 | 37.04370 | -80.98835 | 37992 ft | 415 kts | 242° |
| 2026-05-05 01:19 | 37.01372 | -81.05000 | 38008 ft | 415 kts | 242° |
| 2026-05-05 01:19 | 36.98371 | -81.11161 | 38022 ft | 415 kts | 242° |
| 2026-05-05 01:20 | 36.95367 | -81.17314 | 38037 ft | 414 kts | 242° |
| 2026-05-05 01:20 | 36.92367 | -81.23451 | 38068 ft | 413 kts | 242° |
| 2026-05-05 01:21 | 36.89368 | -81.29573 | 38071 ft | 413 kts | 242° |
| 2026-05-05 01:21 | 36.86373 | -81.35679 | 38075 ft | 412 kts | 242° |
| 2026-05-05 01:22 | 36.83373 | -81.41780 | 38079 ft | 412 kts | 242° |
| 2026-05-05 01:22 | 36.80376 | -81.47864 | 38051 ft | 411 kts | 242° |
| 2026-05-05 01:23 | 36.77382 | -81.53934 | 38036 ft | 410 kts | 242° |
| 2026-05-05 01:23 | 36.74388 | -81.59996 | 38012 ft | 410 kts | 242° |
| 2026-05-05 01:24 | 36.71368 | -81.66032 | 37992 ft | 410 kts | 241° |
| 2026-05-05 01:24 | 36.68810 | -81.71011 | 37987 ft | 410 kts | 241° |
| 2026-05-05 01:25 | 36.65729 | -81.76987 | 38001 ft | 410 kts | 241° |
| 2026-05-05 01:25 | 36.62649 | -81.82966 | 37999 ft | 410 kts | 241° |
| 2026-05-05 01:26 | 36.60608 | -81.86928 | 38019 ft | 410 kts | 241° |
| 2026-05-05 01:26 | 36.58143 | -81.91712 | 37997 ft | 411 kts | 241° |
| 2026-05-05 01:27 | 36.55058 | -81.97689 | 38014 ft | 411 kts | 241° |
| 2026-05-05 01:27 | 36.51967 | -82.03668 | 38002 ft | 411 kts | 241° |
| 2026-05-05 01:28 | 36.48870 | -82.09647 | 37992 ft | 411 kts | 241° |
| 2026-05-05 01:28 | 36.45774 | -82.15615 | 37977 ft | 411 kts | 241° |
| 2026-05-05 01:29 | 36.42677 | -82.21574 | 37978 ft | 411 kts | 241° |
| 2026-05-05 01:29 | 36.39574 | -82.27534 | 37980 ft | 411 kts | 241° |
| 2026-05-05 01:30 | 36.36472 | -82.33481 | 37984 ft | 410 kts | 241° |
| 2026-05-05 01:30 | 36.33369 | -82.39419 | 37983 ft | 410 kts | 241° |
| 2026-05-05 01:31 | 36.30266 | -82.45349 | 37979 ft | 410 kts | 241° |
| 2026-05-05 01:31 | 36.27178 | -82.51238 | 37973 ft | 410 kts | 241° |
| 2026-05-05 01:32 | 36.24064 | -82.57168 | 37983 ft | 411 kts | 241° |
| 2026-05-05 01:32 | 36.20941 | -82.63104 | 37990 ft | 411 kts | 241° |
| 2026-05-05 01:33 | 36.17812 | -82.69040 | 37997 ft | 412 kts | 241° |
| 2026-05-05 01:33 | 36.14677 | -82.74979 | 37999 ft | 412 kts | 241° |
| 2026-05-05 01:34 | 36.11537 | -82.80915 | 38000 ft | 412 kts | 241° |
| 2026-05-05 01:34 | 36.08395 | -82.86847 | 37996 ft | 413 kts | 241° |
| 2026-05-05 01:35 | 36.05246 | -82.92782 | 37989 ft | 413 kts | 241° |
| 2026-05-05 01:35 | 36.02095 | -82.98709 | 37978 ft | 413 kts | 241° |
| 2026-05-05 01:36 | 36.00515 | -83.01677 | 37974 ft | 413 kts | 241° |
| 2026-05-05 01:36 | 35.97364 | -83.07592 | 37974 ft | 413 kts | 241° |
| 2026-05-05 01:37 | 35.94204 | -83.13513 | 37972 ft | 413 kts | 241° |
| 2026-05-05 01:37 | 35.91052 | -83.19428 | 37976 ft | 412 kts | 242° |
| 2026-05-05 01:38 | 35.88071 | -83.25443 | 37984 ft | 411 kts | 243° |
| 2026-05-05 01:38 | 35.85139 | -83.31471 | 37984 ft | 409 kts | 243° |
| 2026-05-05 01:39 | 35.82188 | -83.37476 | 37983 ft | 409 kts | 243° |
| 2026-05-05 01:39 | 35.79225 | -83.43464 | 37993 ft | 409 kts | 243° |
| 2026-05-05 01:40 | 35.76276 | -83.49413 | 37985 ft | 410 kts | 243° |
| 2026-05-05 01:40 | 35.73297 | -83.55392 | 37991 ft | 410 kts | 242° |
| 2026-05-05 01:41 | 35.70151 | -83.61276 | 37996 ft | 412 kts | 241° |
| 2026-05-05 01:41 | 35.66938 | -83.67135 | 37979 ft | 413 kts | 241° |
| 2026-05-05 01:42 | 35.63737 | -83.72995 | 37980 ft | 413 kts | 241° |
| 2026-05-05 01:42 | 35.60549 | -83.78851 | 37991 ft | 412 kts | 241° |
| 2026-05-05 01:43 | 35.57366 | -83.84705 | 37990 ft | 412 kts | 241° |
| 2026-05-05 01:43 | 35.54178 | -83.90561 | 37991 ft | 412 kts | 242° |
| 2026-05-05 01:44 | 35.50988 | -83.96408 | 37988 ft | 412 kts | 242° |
| 2026-05-05 01:44 | 35.47798 | -84.02246 | 38014 ft | 412 kts | 242° |
| 2026-05-05 01:45 | 35.44604 | -84.08085 | 38005 ft | 412 kts | 242° |
| 2026-05-05 01:45 | 35.41407 | -84.13917 | 37997 ft | 412 kts | 242° |
| 2026-05-05 01:46 | 35.39827 | -84.16795 | 37996 ft | 412 kts | 242° |
| 2026-05-05 01:46 | 35.36636 | -84.22600 | 38000 ft | 412 kts | 242° |
| 2026-05-05 01:47 | 35.33432 | -84.28421 | 38000 ft | 412 kts | 242° |
| 2026-05-05 01:47 | 35.30224 | -84.34239 | 38014 ft | 413 kts | 242° |
| 2026-05-05 01:48 | 35.27005 | -84.40067 | 38007 ft | 413 kts | 242° |
| 2026-05-05 01:48 | 35.23782 | -84.45893 | 38020 ft | 414 kts | 242° |
| 2026-05-05 01:49 | 35.20553 | -84.51720 | 38012 ft | 415 kts | 242° |
| 2026-05-05 01:49 | 35.17312 | -84.57559 | 37995 ft | 415 kts | 242° |
| 2026-05-05 01:50 | 35.14063 | -84.63402 | 37995 ft | 416 kts | 242° |
| 2026-05-05 01:50 | 35.10809 | -84.69246 | 37985 ft | 417 kts | 242° |
| 2026-05-05 01:51 | 35.07545 | -84.75095 | 37989 ft | 417 kts | 242° |
| 2026-05-05 01:51 | 35.04279 | -84.80940 | 37993 ft | 417 kts | 243° |
| 2026-05-05 01:52 | 35.01014 | -84.86773 | 37994 ft | 416 kts | 243° |
| 2026-05-05 01:52 | 34.97743 | -84.92608 | 37993 ft | 416 kts | 243° |
| 2026-05-05 01:53 | 34.94474 | -84.98429 | 37996 ft | 416 kts | 243° |
| 2026-05-05 01:53 | 34.91207 | -85.04238 | 37995 ft | 415 kts | 243° |
| 2026-05-05 01:54 | 34.87942 | -85.10033 | 37999 ft | 415 kts | 243° |
| 2026-05-05 01:54 | 34.84671 | -85.15831 | 37999 ft | 415 kts | 244° |
| 2026-05-05 01:55 | 34.81402 | -85.21617 | 38000 ft | 415 kts | 244° |
| 2026-05-05 01:55 | 34.78134 | -85.27390 | 37994 ft | 415 kts | 244° |
| 2026-05-05 01:56 | 34.76492 | -85.30282 | 37993 ft | 415 kts | 244° |
| 2026-05-05 01:56 | 34.73385 | -85.35745 | 38005 ft | 414 kts | 244° |
| 2026-05-05 01:57 | 34.70103 | -85.41510 | 37990 ft | 415 kts | 245° |
| 2026-05-05 01:57 | 34.66816 | -85.47274 | 37975 ft | 414 kts | 245° |
| 2026-05-05 01:58 | 34.63539 | -85.53011 | 37986 ft | 413 kts | 245° |
| 2026-05-05 01:58 | 34.60285 | -85.58702 | 37990 ft | 413 kts | 245° |
| 2026-05-05 01:59 | 34.57004 | -85.64432 | 37981 ft | 414 kts | 246° |
| 2026-05-05 01:59 | 34.53721 | -85.70154 | 37996 ft | 413 kts | 246° |
| 2026-05-05 02:00 | 34.50435 | -85.75872 | 37997 ft | 413 kts | 246° |
| 2026-05-05 02:00 | 34.47151 | -85.81578 | 37995 ft | 413 kts | 246° |
| 2026-05-05 02:01 | 34.43860 | -85.87287 | 37988 ft | 413 kts | 246° |
| 2026-05-05 02:01 | 34.40570 | -85.92984 | 37991 ft | 412 kts | 246° |
| 2026-05-05 02:02 | 34.37286 | -85.98663 | 38005 ft | 412 kts | 246° |
| 2026-05-05 02:02 | 34.33999 | -86.04338 | 37997 ft | 411 kts | 246° |
| 2026-05-05 02:03 | 34.30711 | -86.10006 | 38007 ft | 411 kts | 246° |
| 2026-05-05 02:03 | 34.27424 | -86.15663 | 38004 ft | 411 kts | 246° |
| 2026-05-05 02:04 | 34.24139 | -86.21308 | 38002 ft | 411 kts | 246° |
| 2026-05-05 02:04 | 34.20850 | -86.26952 | 38018 ft | 411 kts | 246° |
| 2026-05-05 02:05 | 34.17558 | -86.32593 | 38020 ft | 411 kts | 246° |
| 2026-05-05 02:05 | 34.14263 | -86.38228 | 38011 ft | 411 kts | 246° |
| 2026-05-05 02:06 | 34.12612 | -86.41049 | 38008 ft | 411 kts | 246° |
| 2026-05-05 02:06 | 34.09378 | -86.46571 | 38003 ft | 411 kts | 247° |
| 2026-05-05 02:07 | 34.06079 | -86.52190 | 38002 ft | 410 kts | 247° |
| 2026-05-05 02:07 | 34.02782 | -86.57806 | 38004 ft | 410 kts | 247° |
| 2026-05-05 02:08 | 33.99513 | -86.63373 | 37999 ft | 409 kts | 247° |
| 2026-05-05 02:08 | 33.96223 | -86.68967 | 38000 ft | 409 kts | 247° |
| 2026-05-05 02:09 | 33.92935 | -86.74552 | 38001 ft | 409 kts | 248° |
| 2026-05-05 02:09 | 33.89649 | -86.80125 | 38007 ft | 409 kts | 248° |
| 2026-05-05 02:10 | 33.86353 | -86.85704 | 38004 ft | 409 kts | 248° |
| 2026-05-05 02:10 | 33.83062 | -86.91266 | 38004 ft | 408 kts | 248° |
| 2026-05-05 02:11 | 33.79772 | -86.96818 | 37997 ft | 407 kts | 249° |
| 2026-05-05 02:11 | 33.76487 | -87.02354 | 37991 ft | 406 kts | 249° |
| 2026-05-05 02:12 | 33.71572 | -87.10622 | 37978 ft | 404 kts | 249° |
| 2026-05-05 02:13 | 33.68302 | -87.16110 | 37964 ft | 403 kts | 250° |
| 2026-05-05 02:13 | 33.65593 | -87.20652 | 37964 ft | 402 kts | 250° |
| 2026-05-05 02:14 | 33.62346 | -87.26088 | 37969 ft | 400 kts | 250° |
| 2026-05-05 02:14 | 33.59100 | -87.31516 | 37968 ft | 400 kts | 250° |
| 2026-05-05 02:15 | 33.55859 | -87.36930 | 37955 ft | 400 kts | 251° |
| 2026-05-05 02:15 | 33.52616 | -87.42338 | 37960 ft | 400 kts | 251° |
| 2026-05-05 02:16 | 33.49363 | -87.47755 | 37955 ft | 400 kts | 251° |
| 2026-05-05 02:16 | 33.47873 | -87.50232 | 37945 ft | 401 kts | 251° |
| 2026-05-05 02:17 | 33.44614 | -87.55646 | 37940 ft | 401 kts | 251° |
| 2026-05-05 02:17 | 33.41352 | -87.61058 | 37942 ft | 401 kts | 251° |
| 2026-05-05 02:18 | 33.38515 | -87.66568 | 37962 ft | 384 kts | 259° |
| 2026-05-05 02:18 | 33.36079 | -87.72261 | 37956 ft | 385 kts | 259° |
| 2026-05-05 02:19 | 33.33632 | -87.77974 | 37956 ft | 387 kts | 258° |
| 2026-05-05 02:19 | 33.31157 | -87.83703 | 37962 ft | 389 kts | 258° |
| 2026-05-05 02:20 | 33.28659 | -87.89458 | 37960 ft | 391 kts | 258° |
| 2026-05-05 02:20 | 33.26146 | -87.95230 | 37966 ft | 392 kts | 258° |
| 2026-05-05 02:21 | 33.23621 | -88.01018 | 37964 ft | 394 kts | 258° |
| 2026-05-05 02:21 | 33.21083 | -88.06825 | 37966 ft | 395 kts | 258° |
| 2026-05-05 02:22 | 33.18537 | -88.12643 | 37957 ft | 396 kts | 257° |
| 2026-05-05 02:22 | 33.15985 | -88.18463 | 37969 ft | 396 kts | 257° |
| 2026-05-05 02:23 | 33.13427 | -88.24288 | 37968 ft | 396 kts | 257° |
| 2026-05-05 02:23 | 33.10868 | -88.30106 | 37967 ft | 396 kts | 257° |
| 2026-05-05 02:24 | 33.08306 | -88.35922 | 37972 ft | 396 kts | 257° |
| 2026-05-05 02:24 | 33.05745 | -88.41727 | 37973 ft | 396 kts | 256° |
| 2026-05-05 02:25 | 33.03198 | -88.47490 | 37976 ft | 395 kts | 256° |
| 2026-05-05 02:25 | 33.00634 | -88.53283 | 37972 ft | 395 kts | 256° |
| 2026-05-05 02:26 | 32.98065 | -88.59076 | 37973 ft | 395 kts | 256° |
| 2026-05-05 02:26 | 32.96889 | -88.61726 | 37968 ft | 395 kts | 256° |
| 2026-05-05 02:27 | 32.94322 | -88.67504 | 37969 ft | 395 kts | 256° |
| 2026-05-05 02:27 | 32.91754 | -88.73271 | 37985 ft | 394 kts | 256° |
| 2026-05-05 02:28 | 32.89182 | -88.79041 | 38006 ft | 394 kts | 255° |
| 2026-05-05 02:28 | 32.86614 | -88.84791 | 38012 ft | 393 kts | 255° |
| 2026-05-05 02:29 | 32.84047 | -88.90530 | 38015 ft | 393 kts | 255° |
| 2026-05-05 02:29 | 32.81481 | -88.96258 | 38002 ft | 392 kts | 255° |
| 2026-05-05 02:30 | 32.78919 | -89.01969 | 37986 ft | 391 kts | 255° |
| 2026-05-05 02:30 | 32.76361 | -89.07662 | 37986 ft | 390 kts | 255° |
| 2026-05-05 02:31 | 32.73804 | -89.13343 | 37984 ft | 389 kts | 255° |
| 2026-05-05 02:31 | 32.71253 | -89.19002 | 37974 ft | 388 kts | 255° |
| 2026-05-05 02:32 | 32.68705 | -89.24648 | 37954 ft | 387 kts | 255° |
| 2026-05-05 02:32 | 32.66162 | -89.30274 | 37933 ft | 387 kts | 255° |
| 2026-05-05 02:33 | 32.63617 | -89.35894 | 37914 ft | 386 kts | 255° |
| 2026-05-05 02:33 | 32.61214 | -89.41532 | 37896 ft | 381 kts | 257° |
| 2026-05-05 02:34 | 32.58947 | -89.47206 | 37885 ft | 380 kts | 257° |
| 2026-05-05 02:34 | 32.56681 | -89.52864 | 37893 ft | 380 kts | 257° |
| 2026-05-05 02:35 | 32.54400 | -89.58505 | 37907 ft | 380 kts | 257° |
| 2026-05-05 02:35 | 32.52105 | -89.64148 | 37912 ft | 380 kts | 257° |
| 2026-05-05 02:36 | 32.49807 | -89.69783 | 37926 ft | 380 kts | 257° |
| 2026-05-05 02:36 | 32.48767 | -89.72329 | 37933 ft | 380 kts | 257° |
| 2026-05-05 02:37 | 32.46460 | -89.77969 | 37947 ft | 380 kts | 257° |
| 2026-05-05 02:37 | 32.44152 | -89.83603 | 37956 ft | 380 kts | 256° |
| 2026-05-05 02:38 | 32.41841 | -89.89233 | 37964 ft | 380 kts | 256° |
| 2026-05-05 02:38 | 32.39528 | -89.94862 | 37969 ft | 380 kts | 256° |
| 2026-05-05 02:39 | 32.37216 | -90.00479 | 37969 ft | 380 kts | 256° |
| 2026-05-05 02:39 | 32.34899 | -90.06098 | 37970 ft | 380 kts | 256° |
| 2026-05-05 02:40 | 32.32584 | -90.11706 | 37968 ft | 379 kts | 256° |
| 2026-05-05 02:40 | 32.30267 | -90.17306 | 37977 ft | 379 kts | 256° |
| 2026-05-05 02:41 | 32.27952 | -90.22895 | 37966 ft | 378 kts | 256° |
| 2026-05-05 02:41 | 32.25638 | -90.28471 | 37970 ft | 378 kts | 256° |
| 2026-05-05 02:42 | 32.23326 | -90.34035 | 37968 ft | 377 kts | 256° |
| 2026-05-05 02:42 | 32.21017 | -90.39586 | 37969 ft | 377 kts | 256° |
| 2026-05-05 02:43 | 32.18703 | -90.45136 | 37973 ft | 376 kts | 256° |
| 2026-05-05 02:43 | 32.16404 | -90.50644 | 37978 ft | 376 kts | 256° |
| 2026-05-05 02:44 | 32.14090 | -90.56181 | 37973 ft | 376 kts | 256° |
| 2026-05-05 02:44 | 32.11757 | -90.61752 | 37980 ft | 376 kts | 256° |
| 2026-05-05 02:45 | 32.09438 | -90.67281 | 37970 ft | 376 kts | 256° |
| 2026-05-05 02:45 | 32.07128 | -90.72782 | 37968 ft | 377 kts | 256° |
| 2026-05-05 02:46 | 32.04799 | -90.78318 | 37958 ft | 377 kts | 256° |
| 2026-05-05 02:46 | 32.03670 | -90.80997 | 37962 ft | 377 kts | 256° |
| 2026-05-05 02:47 | 32.01337 | -90.86531 | 37969 ft | 377 kts | 256° |
| 2026-05-05 02:47 | 31.99006 | -90.92051 | 37973 ft | 377 kts | 256° |
| 2026-05-05 02:48 | 31.96666 | -90.97584 | 37971 ft | 377 kts | 256° |
| 2026-05-05 02:48 | 31.94324 | -91.03114 | 37981 ft | 377 kts | 256° |
| 2026-05-05 02:49 | 31.91979 | -91.08644 | 37986 ft | 377 kts | 256° |
| 2026-05-05 02:49 | 31.89636 | -91.14161 | 37983 ft | 377 kts | 256° |
| 2026-05-05 02:50 | 31.87233 | -91.19678 | 37976 ft | 380 kts | 254° |
| 2026-05-05 02:50 | 31.84687 | -91.25135 | 37979 ft | 380 kts | 253° |
| 2026-05-05 02:51 | 31.82131 | -91.30576 | 37978 ft | 380 kts | 253° |
| 2026-05-05 02:51 | 31.79590 | -91.36009 | 37979 ft | 379 kts | 254° |
| 2026-05-05 02:52 | 31.77056 | -91.41445 | 37977 ft | 379 kts | 254° |
| 2026-05-05 02:52 | 31.74545 | -91.46830 | 37973 ft | 378 kts | 254° |
| 2026-05-05 02:53 | 31.72014 | -91.52250 | 37970 ft | 378 kts | 253° |
| 2026-05-05 02:53 | 31.69485 | -91.57661 | 37978 ft | 378 kts | 253° |
| 2026-05-05 02:54 | 31.66953 | -91.63067 | 37969 ft | 378 kts | 253° |
| 2026-05-05 02:54 | 31.64420 | -91.68470 | 37973 ft | 378 kts | 253° |
| 2026-05-05 02:55 | 31.61882 | -91.73875 | 37965 ft | 378 kts | 253° |
| 2026-05-05 02:55 | 31.59339 | -91.79282 | 37957 ft | 379 kts | 253° |
| 2026-05-05 02:56 | 31.56793 | -91.84689 | 37964 ft | 379 kts | 253° |
| 2026-05-05 02:56 | 31.55654 | -91.87104 | 37959 ft | 379 kts | 253° |
| 2026-05-05 02:57 | 31.53102 | -91.92512 | 37960 ft | 379 kts | 253° |
| 2026-05-05 02:57 | 31.50546 | -91.97920 | 37951 ft | 380 kts | 253° |
| 2026-05-05 02:58 | 31.47984 | -92.03332 | 37952 ft | 380 kts | 253° |
| 2026-05-05 02:58 | 31.45437 | -92.08707 | 37945 ft | 380 kts | 253° |
| 2026-05-05 02:59 | 31.42851 | -92.14155 | 37952 ft | 380 kts | 253° |
| 2026-05-05 02:59 | 31.40295 | -92.19532 | 37950 ft | 381 kts | 253° |
| 2026-05-05 03:00 | 31.37700 | -92.24984 | 37951 ft | 381 kts | 253° |
| 2026-05-05 03:00 | 31.35138 | -92.30358 | 37955 ft | 381 kts | 253° |
| 2026-05-05 03:01 | 31.32552 | -92.35777 | 37954 ft | 381 kts | 253° |
| 2026-05-05 03:01 | 31.29962 | -92.41196 | 37958 ft | 382 kts | 252° |
| 2026-05-05 03:02 | 31.27371 | -92.46611 | 37960 ft | 382 kts | 252° |
| 2026-05-05 03:02 | 31.25224 | -92.51107 | 37957 ft | 380 kts | 253° |
| 2026-05-05 03:03 | 31.22793 | -92.56573 | 37963 ft | 378 kts | 255° |
| 2026-05-05 03:03 | 31.20412 | -92.62055 | 37957 ft | 378 kts | 254° |
| 2026-05-05 03:04 | 31.18016 | -92.67534 | 37956 ft | 379 kts | 254° |
| 2026-05-05 03:04 | 31.15610 | -92.73003 | 37971 ft | 379 kts | 254° |
| 2026-05-05 03:05 | 31.13193 | -92.78476 | 37973 ft | 379 kts | 254° |
| 2026-05-05 03:05 | 31.10772 | -92.83947 | 37974 ft | 379 kts | 254° |
| 2026-05-05 03:06 | 31.08348 | -92.89414 | 37972 ft | 380 kts | 253° |
| 2026-05-05 03:06 | 31.07343 | -92.91680 | 37961 ft | 380 kts | 253° |
| 2026-05-05 03:06 | 31.06124 | -92.94431 | 37635 ft | 382 kts | 253° |
| 2026-05-05 03:07 | 31.04905 | -92.97167 | 37275 ft | 377 kts | 253° |
| 2026-05-05 03:07 | 31.03706 | -92.99852 | 36936 ft | 371 kts | 254° |
| 2026-05-05 03:07 | 31.02521 | -93.02507 | 36522 ft | 367 kts | 254° |
| 2026-05-05 03:07 | 31.01350 | -93.05132 | 36151 ft | 363 kts | 254° |
| 2026-05-05 03:08 | 31.00195 | -93.07722 | 35774 ft | 359 kts | 254° |
| 2026-05-05 03:08 | 30.99049 | -93.10294 | 35388 ft | 356 kts | 254° |
| 2026-05-05 03:08 | 30.97912 | -93.12845 | 35008 ft | 353 kts | 254° |
| 2026-05-05 03:08 | 30.96785 | -93.15370 | 34628 ft | 350 kts | 254° |
| 2026-05-05 03:09 | 30.95664 | -93.17881 | 34260 ft | 348 kts | 254° |
| 2026-05-05 03:09 | 30.94552 | -93.20372 | 33875 ft | 346 kts | 254° |
| 2026-05-05 03:09 | 30.93445 | -93.22849 | 33455 ft | 343 kts | 254° |
| 2026-05-05 03:09 | 30.92360 | -93.25274 | 33095 ft | 341 kts | 254° |
| 2026-05-05 03:10 | 30.91268 | -93.27710 | 32720 ft | 338 kts | 254° |
| 2026-05-05 03:10 | 30.90184 | -93.30129 | 32358 ft | 336 kts | 254° |
| 2026-05-05 03:10 | 30.89109 | -93.32528 | 31993 ft | 333 kts | 254° |
| 2026-05-05 03:10 | 30.88039 | -93.34913 | 31638 ft | 331 kts | 254° |
| 2026-05-05 03:11 | 30.86976 | -93.37280 | 31290 ft | 329 kts | 254° |
| 2026-05-05 03:11 | 30.85920 | -93.39633 | 30938 ft | 327 kts | 254° |
| 2026-05-05 03:11 | 30.84866 | -93.41978 | 30592 ft | 326 kts | 254° |
| 2026-05-05 03:11 | 30.83819 | -93.44308 | 30229 ft | 325 kts | 254° |
| 2026-05-05 03:12 | 30.82772 | -93.46637 | 29846 ft | 324 kts | 254° |
| 2026-05-05 03:12 | 30.81728 | -93.48954 | 29459 ft | 322 kts | 254° |
| 2026-05-05 03:12 | 30.80691 | -93.51255 | 29075 ft | 320 kts | 253° |
| 2026-05-05 03:12 | 30.79662 | -93.53533 | 28714 ft | 317 kts | 253° |
| 2026-05-05 03:13 | 30.78643 | -93.55792 | 28354 ft | 314 kts | 253° |
| 2026-05-05 03:13 | 30.77629 | -93.58036 | 28002 ft | 312 kts | 253° |
| 2026-05-05 03:13 | 30.76625 | -93.60260 | 27649 ft | 310 kts | 253° |
| 2026-05-05 03:13 | 30.75624 | -93.62478 | 27312 ft | 309 kts | 253° |
| 2026-05-05 03:14 | 30.74627 | -93.64686 | 26969 ft | 309 kts | 253° |
| 2026-05-05 03:14 | 30.73619 | -93.66925 | 26634 ft | 317 kts | 253° |
| 2026-05-05 03:14 | 30.72580 | -93.69233 | 26277 ft | 326 kts | 252° |
| 2026-05-05 03:14 | 30.71523 | -93.71562 | 25899 ft | 325 kts | 252° |
| 2026-05-05 03:15 | 30.70469 | -93.73877 | 25533 ft | 323 kts | 252° |
| 2026-05-05 03:15 | 30.69422 | -93.76180 | 25157 ft | 322 kts | 252° |
| 2026-05-05 03:15 | 30.68380 | -93.78476 | 24808 ft | 320 kts | 252° |
| 2026-05-05 03:15 | 30.67346 | -93.80759 | 24440 ft | 319 kts | 252° |
| 2026-05-05 03:16 | 30.66315 | -93.83037 | 24074 ft | 318 kts | 251° |
| 2026-05-05 03:16 | 30.65463 | -93.84918 | 23778 ft | 317 kts | 251° |
| 2026-05-05 03:16 | 30.64439 | -93.87180 | 23409 ft | 316 kts | 251° |
| 2026-05-05 03:17 | 30.63416 | -93.89438 | 23004 ft | 315 kts | 251° |
| 2026-05-05 03:17 | 30.62413 | -93.91648 | 22630 ft | 312 kts | 251° |
| 2026-05-05 03:17 | 30.61404 | -93.93870 | 22283 ft | 310 kts | 250° |
| 2026-05-05 03:17 | 30.60403 | -93.96074 | 21942 ft | 308 kts | 250° |
| 2026-05-05 03:18 | 30.59409 | -93.98263 | 21595 ft | 305 kts | 250° |
| 2026-05-05 03:18 | 30.58422 | -94.00436 | 21260 ft | 303 kts | 250° |
| 2026-05-05 03:18 | 30.57440 | -94.02597 | 20925 ft | 302 kts | 250° |
| 2026-05-05 03:18 | 30.56464 | -94.04742 | 20590 ft | 300 kts | 249° |
| 2026-05-05 03:19 | 30.54525 | -94.08999 | 19928 ft | 297 kts | 249° |
| 2026-05-05 03:19 | 30.53558 | -94.11112 | 19600 ft | 296 kts | 249° |
| 2026-05-05 03:19 | 30.52595 | -94.13213 | 19274 ft | 295 kts | 249° |
| 2026-05-05 03:20 | 30.51634 | -94.15308 | 18952 ft | 294 kts | 248° |
| 2026-05-05 03:20 | 30.50676 | -94.17397 | 18624 ft | 293 kts | 248° |
| 2026-05-05 03:20 | 30.49719 | -94.19482 | 18301 ft | 293 kts | 248° |
| 2026-05-05 03:20 | 30.48766 | -94.21557 | 17972 ft | 291 kts | 248° |
| 2026-05-05 03:21 | 30.47817 | -94.23623 | 17636 ft | 289 kts | 248° |
| 2026-05-05 03:21 | 30.46873 | -94.25679 | 17314 ft | 288 kts | 248° |
| 2026-05-05 03:21 | 30.45935 | -94.27719 | 16991 ft | 286 kts | 248° |
| 2026-05-05 03:21 | 30.45003 | -94.29746 | 16680 ft | 285 kts | 248° |
| 2026-05-05 03:22 | 30.44074 | -94.31766 | 16365 ft | 283 kts | 247° |
| 2026-05-05 03:22 | 30.43149 | -94.33777 | 16055 ft | 282 kts | 247° |
| 2026-05-05 03:22 | 30.42227 | -94.35778 | 15745 ft | 281 kts | 247° |
| 2026-05-05 03:22 | 30.41307 | -94.37774 | 15431 ft | 280 kts | 247° |
| 2026-05-05 03:23 | 30.40385 | -94.39757 | 15126 ft | 280 kts | 244° |
| 2026-05-05 03:23 | 30.39121 | -94.41503 | 14841 ft | 289 kts | 227° |
| 2026-05-05 03:23 | 30.37571 | -94.42999 | 14581 ft | 293 kts | 225° |
| 2026-05-05 03:23 | 30.35969 | -94.44500 | 14294 ft | 298 kts | 224° |
| 2026-05-05 03:24 | 30.34366 | -94.46000 | 14005 ft | 302 kts | 224° |
| 2026-05-05 03:24 | 30.32728 | -94.47540 | 13706 ft | 304 kts | 224° |
| 2026-05-05 03:24 | 30.31090 | -94.49087 | 13374 ft | 303 kts | 224° |
| 2026-05-05 03:24 | 30.29467 | -94.50624 | 13070 ft | 300 kts | 224° |
| 2026-05-05 03:25 | 30.27862 | -94.52148 | 12772 ft | 297 kts | 224° |
| 2026-05-05 03:25 | 30.26276 | -94.53655 | 12487 ft | 294 kts | 224° |
| 2026-05-05 03:25 | 30.24703 | -94.55152 | 12207 ft | 291 kts | 224° |
| 2026-05-05 03:25 | 30.23149 | -94.56629 | 11930 ft | 288 kts | 224° |
| 2026-05-05 03:26 | 30.21704 | -94.58002 | 11672 ft | 286 kts | 224° |
| 2026-05-05 03:26 | 30.20364 | -94.59268 | 11433 ft | 284 kts | 223° |
| 2026-05-05 03:26 | 30.18810 | -94.60669 | 11164 ft | 282 kts | 221° |
| 2026-05-05 03:27 | 30.17547 | -94.61785 | 10947 ft | 281 kts | 221° |
| 2026-05-05 03:27 | 30.16388 | -94.62809 | 10754 ft | 279 kts | 221° |
| 2026-05-05 03:27 | 30.14851 | -94.64171 | 10485 ft | 277 kts | 221° |
| 2026-05-05 03:27 | 30.13328 | -94.65524 | 10221 ft | 275 kts | 221° |
| 2026-05-05 03:28 | 30.11814 | -94.66871 | 9959 ft | 274 kts | 221° |
| 2026-05-05 03:28 | 30.10311 | -94.68208 | 9684 ft | 272 kts | 221° |
| 2026-05-05 03:28 | 30.08816 | -94.69539 | 9404 ft | 270 kts | 221° |
| 2026-05-05 03:28 | 30.07330 | -94.70861 | 9128 ft | 268 kts | 221° |
| 2026-05-05 03:29 | 30.05859 | -94.72167 | 8889 ft | 265 kts | 221° |
| 2026-05-05 03:29 | 30.04417 | -94.73454 | 8645 ft | 262 kts | 221° |
| 2026-05-05 03:29 | 30.02991 | -94.74757 | 8375 ft | 260 kts | 221° |
| 2026-05-05 03:29 | 30.01668 | -94.76158 | 8085 ft | 256 kts | 237° |
| 2026-05-05 03:30 | 30.00954 | -94.77993 | 7829 ft | 248 kts | 259° |
| 2026-05-05 03:30 | 30.00824 | -94.79932 | 7582 ft | 239 kts | 269° |
| 2026-05-05 03:30 | 30.00819 | -94.81818 | 7322 ft | 232 kts | 270° |
| 2026-05-05 03:30 | 30.00824 | -94.83651 | 7081 ft | 225 kts | 270° |
| 2026-05-05 03:31 | 30.00828 | -94.85451 | 6861 ft | 224 kts | 270° |
| 2026-05-05 03:31 | 30.00829 | -94.87097 | 6649 ft | 224 kts | 270° |
| 2026-05-05 03:31 | 30.00828 | -94.88890 | 6417 ft | 223 kts | 269° |
| 2026-05-05 03:31 | 30.00825 | -94.90683 | 6170 ft | 223 kts | 269° |
| 2026-05-05 03:32 | 30.00820 | -94.92462 | 5921 ft | 221 kts | 269° |
| 2026-05-05 03:32 | 30.00813 | -94.94221 | 5679 ft | 218 kts | 269° |
| 2026-05-05 03:32 | 30.00807 | -94.95954 | 5447 ft | 215 kts | 268° |
| 2026-05-05 03:32 | 30.00800 | -94.97670 | 5226 ft | 214 kts | 268° |
| 2026-05-05 03:33 | 30.00792 | -94.99402 | 5007 ft | 217 kts | 268° |
| 2026-05-05 03:33 | 30.00784 | -95.01133 | 4787 ft | 220 kts | 267° |
| 2026-05-05 03:33 | 30.00775 | -95.02890 | 4541 ft | 218 kts | 267° |
| 2026-05-05 03:33 | 30.00772 | -95.04635 | 4296 ft | 216 kts | 267° |
| 2026-05-05 03:34 | 30.00773 | -95.06327 | 4087 ft | 205 kts | 266° |
| 2026-05-05 03:34 | 30.00772 | -95.07916 | 3860 ft | 190 kts | 265° |
| 2026-05-05 03:34 | 30.00769 | -95.09378 | 3652 ft | 174 kts | 265° |
| 2026-05-05 03:34 | 30.00765 | -95.10707 | 3473 ft | 158 kts | 264° |
| 2026-05-05 03:35 | 30.00761 | -95.11930 | 3341 ft | 153 kts | 263° |
| 2026-05-05 03:35 | 30.00755 | -95.13149 | 3168 ft | 151 kts | 263° |
| 2026-05-05 03:35 | 30.00752 | -95.14348 | 2997 ft | 148 kts | 262° |
| 2026-05-05 03:35 | 30.00749 | -95.15529 | 2847 ft | 148 kts | 262° |
| 2026-05-05 03:36 | 30.00746 | -95.16710 | 2811 ft | 148 kts | 262° |
| 2026-05-05 03:36 | 30.00742 | -95.17920 | 2634 ft | 151 kts | 262° |
| 2026-05-05 03:36 | 30.00740 | -95.19129 | 2439 ft | 149 kts | 261° |
| 2026-05-05 03:36 | 30.00738 | -95.20319 | 2251 ft | 148 kts | 261° |
| 2026-05-05 03:37 | 30.00736 | -95.21507 | 2061 ft | 148 kts | 261° |
| 2026-05-05 03:37 | 30.00734 | -95.22682 | 1869 ft | 145 kts | 259° |
| 2026-05-05 03:37 | 30.00731 | -95.23848 | 1688 ft | 146 kts | 258° |
| 2026-05-05 03:37 | 30.00727 | -95.25034 | 1476 ft | 149 kts | 260° |
| 2026-05-05 03:38 | 30.00726 | -95.26230 | 1304 ft | 148 kts | 260° |
| 2026-05-05 03:38 | 30.00725 | -95.27409 | 1089 ft | 147 kts | 261° |
| 2026-05-05 03:38 | 30.00721 | -95.28618 | 904 ft | 154 kts | 264° |
| 2026-05-05 03:38 | 30.00722 | -95.29859 | 694 ft | 154 kts | 266° |
| 2026-05-05 03:39 | 30.00724 | -95.31079 | 493 ft | 150 kts | 266° |
| 2026-05-05 03:39 | 30.00723 | -95.32277 | 277 ft | 147 kts | 265° |
| 2026-05-05 03:39 | 30.00720 | -95.33434 | 108 ft | 137 kts | 266° |
| 2026-05-05 03:39 | 30.00718 | -95.34402 | 105 ft | 100 kts | 268° |
| 2026-05-05 03:40 | 30.00717 | -95.35005 | 106 ft | 53 kts | 269° |
| 2026-05-05 03:40 | 30.00703 | -95.35300 | 105 ft | 30 kts | 258° |
| 2026-05-05 03:40 | 30.00645 | -95.35467 | 106 ft | 15 kts | 242° |
| 2026-05-05 03:40 | 30.00626 | -95.35497 | 105 ft | 0 kts | 219° |